createdAt,value
2018-02-22T00:01:41.853Z,74.60
2018-02-22T00:04:09.313Z,74.60
2018-02-22T00:06:36.769Z,75.30
2018-02-22T00:09:04.996Z,75.30
2018-02-22T00:11:33.210Z,74.70
2018-02-22T00:14:00.668Z,74.70
2018-02-22T00:16:28.131Z,74.60
2018-02-22T00:18:55.600Z,74.60
2018-02-22T00:21:23.063Z,75.00
2018-02-22T00:23:50.526Z,75.30
2018-02-22T00:26:17.985Z,74.70
2018-02-22T00:28:45.606Z,75.20
2018-02-22T00:31:13.066Z,74.90
2018-02-22T00:33:40.533Z,75.20
2018-02-22T00:36:07.997Z,75.30
2018-02-22T00:38:35.454Z,75.70
2018-02-22T00:41:02.920Z,75.50
2018-02-22T00:43:30.373Z,75.70
2018-02-22T00:45:57.830Z,76.10
2018-02-22T00:48:25.281Z,75.60
2018-02-22T00:50:52.753Z,75.80
2018-02-22T00:53:20.200Z,75.80
2018-02-22T00:55:47.693Z,75.80
2018-02-22T00:58:15.197Z,75.60
2018-02-22T01:00:42.660Z,75.60
2018-02-22T01:03:10.109Z,75.80
2018-02-22T01:05:38.342Z,76.20
2018-02-22T01:08:05.796Z,76.10
2018-02-22T01:10:33.259Z,76.00
2018-02-22T01:13:01.859Z,75.80
2018-02-22T01:15:29.334Z,75.80
2018-02-22T01:17:56.794Z,76.20
2018-02-22T01:20:24.257Z,76.30
2018-02-22T01:22:51.710Z,76.50
2018-02-22T01:25:19.176Z,76.50
2018-02-22T01:27:46.635Z,77.20
2018-02-22T01:30:14.146Z,76.90
2018-02-22T01:32:41.636Z,77.20
2018-02-22T01:35:10.217Z,77.40
2018-02-22T01:37:37.677Z,77.80
2018-02-22T01:40:05.133Z,77.30
2018-02-22T01:42:32.589Z,77.60
2018-02-22T01:45:00.077Z,77.50
2018-02-22T01:47:27.533Z,77.20
2018-02-22T01:49:54.990Z,77.50
2018-02-22T01:52:22.445Z,77.40
2018-02-22T01:54:49.908Z,77.50
2018-02-22T01:57:17.383Z,78.00
2018-02-22T01:59:44.865Z,76.80
2018-02-22T02:02:12.312Z,77.60
2018-02-22T02:04:39.785Z,77.00
2018-02-22T02:07:07.244Z,77.10
2018-02-22T02:09:34.705Z,77.20
2018-02-22T02:12:02.942Z,77.30
2018-02-22T02:14:31.166Z,77.10
2018-02-22T02:16:58.628Z,77.10
2018-02-22T02:19:26.091Z,76.90
2018-02-22T02:21:53.628Z,77.20
2018-02-22T02:24:21.098Z,77.40
2018-02-22T02:26:48.558Z,77.70
2018-02-22T02:29:16.021Z,77.60
2018-02-22T02:31:43.489Z,77.40
2018-02-22T02:34:10.941Z,77.80
2018-02-22T02:36:43.534Z,78.00
2018-02-22T02:39:10.992Z,78.00
2018-02-22T02:41:38.470Z,77.90
2018-02-22T02:44:05.921Z,78.30
2018-02-22T02:46:33.390Z,78.30
2018-02-22T02:49:00.857Z,78.30
2018-02-22T02:51:28.337Z,78.20
2018-02-22T02:53:55.785Z,78.10
2018-02-22T02:56:23.253Z,77.80
2018-02-22T02:58:50.705Z,77.80
2018-02-22T03:01:18.168Z,77.70
2018-02-22T03:03:45.628Z,77.80
2018-02-22T03:06:13.097Z,78.00
2018-02-22T03:08:40.552Z,77.70
2018-02-22T03:11:08.016Z,77.40
2018-02-22T03:13:35.485Z,77.60
2018-02-22T03:16:02.945Z,77.90
2018-02-22T03:18:30.404Z,77.80
2018-02-22T03:20:57.869Z,77.80
2018-02-22T03:23:25.324Z,77.50
2018-02-22T03:25:52.782Z,77.40
2018-02-22T03:28:20.238Z,77.00
2018-02-22T03:30:48.478Z,77.10
2018-02-22T03:33:15.925Z,77.00
2018-02-22T03:35:44.148Z,77.10
2018-02-22T03:38:11.633Z,77.10
2018-02-22T03:40:39.092Z,77.10
2018-02-22T03:43:06.548Z,77.10
2018-02-22T03:45:34.007Z,77.00
2018-02-22T03:48:01.468Z,76.90
2018-02-22T03:50:28.929Z,76.90
2018-02-22T03:52:56.402Z,76.70
2018-02-22T03:55:23.853Z,76.80
2018-02-22T03:57:51.317Z,76.90
2018-02-22T04:00:18.764Z,76.90
2018-02-22T04:02:46.230Z,76.60
2018-02-22T04:05:13.696Z,76.70
2018-02-22T04:07:41.160Z,76.70
2018-02-22T04:10:08.616Z,76.60
2018-02-22T04:12:36.861Z,77.20
2018-02-22T04:15:05.085Z,77.40
2018-02-22T04:17:32.549Z,77.40
2018-02-22T04:20:00.009Z,77.30
2018-02-22T04:22:27.474Z,77.80
2018-02-22T04:24:54.931Z,77.40
2018-02-22T04:27:22.397Z,77.00
2018-02-22T04:29:49.851Z,77.30
2018-02-22T04:32:17.321Z,77.30
2018-02-22T04:34:44.782Z,77.60
2018-02-22T04:37:12.242Z,77.40
2018-02-22T04:39:39.687Z,77.60
2018-02-22T04:42:07.148Z,77.60
2018-02-22T04:44:34.940Z,77.60
2018-02-22T04:47:03.224Z,77.80
2018-02-22T04:49:30.676Z,77.80
2018-02-22T04:51:58.152Z,78.00
2018-02-22T04:54:25.611Z,77.70
2018-02-22T04:56:53.069Z,78.00
2018-02-22T04:59:20.525Z,78.00
2018-02-22T05:01:47.997Z,78.00
2018-02-22T05:04:15.461Z,78.10
2018-02-22T05:06:43.004Z,78.00
2018-02-22T05:09:10.464Z,77.70
2018-02-22T05:11:37.924Z,77.80
2018-02-22T05:14:05.412Z,77.90
2018-02-22T05:16:32.861Z,77.40
2018-02-22T05:19:00.329Z,77.70
2018-02-22T05:21:27.803Z,78.20
2018-02-22T05:23:55.261Z,78.20
2018-02-22T05:26:22.720Z,77.80
2018-02-22T05:28:50.180Z,77.90
2018-02-22T05:31:17.641Z,78.00
2018-02-22T05:33:45.184Z,78.00
2018-02-22T05:36:12.621Z,78.00
2018-02-22T05:38:40.849Z,77.60
2018-02-22T05:41:08.318Z,77.50
2018-02-22T05:43:35.787Z,77.40
2018-02-22T05:46:03.241Z,77.60
2018-02-22T05:48:30.701Z,77.80
2018-02-22T05:50:58.166Z,77.70
2018-02-22T05:53:25.628Z,77.50
2018-02-22T05:55:53.093Z,77.40
2018-02-22T05:58:20.563Z,77.40
2018-02-22T06:00:48.012Z,77.60
2018-02-22T06:03:16.246Z,77.60
2018-02-22T06:05:44.473Z,77.30
2018-02-22T06:08:11.942Z,77.30
2018-02-22T06:10:39.384Z,77.30
2018-02-22T06:13:06.874Z,77.10
2018-02-22T06:15:34.366Z,77.20
2018-02-22T06:18:02.597Z,76.70
2018-02-22T06:20:30.062Z,76.70
2018-02-22T06:22:57.537Z,76.80
2018-02-22T06:25:24.991Z,76.70
2018-02-22T06:27:52.450Z,76.70
2018-02-22T06:30:19.909Z,76.40
2018-02-22T06:32:47.452Z,76.70
2018-02-22T06:35:14.909Z,76.50
2018-02-22T06:37:42.366Z,76.60
2018-02-22T06:40:09.821Z,76.30
2018-02-22T06:42:38.054Z,76.50
2018-02-22T06:45:05.519Z,76.50
2018-02-22T06:47:32.980Z,76.70
2018-02-22T06:50:00.446Z,76.50
2018-02-22T06:52:27.934Z,76.30
2018-02-22T06:54:55.370Z,76.30
2018-02-22T06:57:23.597Z,76.40
2018-02-22T06:59:51.068Z,76.40
2018-02-22T07:02:18.517Z,76.00
2018-02-22T07:04:46.744Z,76.30
2018-02-22T07:07:14.197Z,76.10
2018-02-22T07:09:41.663Z,76.00
2018-02-22T07:12:09.129Z,75.90
2018-02-22T07:14:36.596Z,75.30
2018-02-22T07:17:04.066Z,76.00
2018-02-22T07:19:31.785Z,76.00
2018-02-22T07:21:59.237Z,75.40
2018-02-22T07:24:27.466Z,75.40
2018-02-22T07:26:54.936Z,75.40
2018-02-22T07:29:22.389Z,75.00
2018-02-22T07:31:49.840Z,75.20
2018-02-22T07:34:17.307Z,74.90
2018-02-22T07:36:44.765Z,75.30
2018-02-22T07:39:12.241Z,74.80
2018-02-22T07:41:39.694Z,74.70
2018-02-22T07:44:07.174Z,74.10
2018-02-22T07:46:34.629Z,74.20
2018-02-22T07:49:02.090Z,74.40
2018-02-22T07:51:29.543Z,74.20
2018-02-22T07:53:57.011Z,73.90
2018-02-22T07:56:24.466Z,73.90
2018-02-22T07:58:51.937Z,74.20
2018-02-22T08:01:19.391Z,73.90
2018-02-22T08:03:46.858Z,73.40
2018-02-22T08:06:14.311Z,73.00
2018-02-22T08:08:41.775Z,73.20
2018-02-22T08:11:09.239Z,73.10
2018-02-22T08:13:36.709Z,73.20
2018-02-22T08:16:04.170Z,73.30
2018-02-22T08:18:31.625Z,73.20
2018-02-22T08:20:59.089Z,72.60
2018-02-22T08:23:26.537Z,73.10
2018-02-22T08:25:54.000Z,73.40
2018-02-22T08:28:21.460Z,73.40
2018-02-22T08:30:48.926Z,73.60
2018-02-22T08:33:16.413Z,73.50
2018-02-22T08:35:43.874Z,73.60
2018-02-22T08:38:11.325Z,73.20
2018-02-22T08:40:38.802Z,73.50
2018-02-22T08:43:06.261Z,72.60
2018-02-22T08:45:33.722Z,73.10
2018-02-22T08:48:01.188Z,73.40
2018-02-22T08:50:29.436Z,72.90
2018-02-22T08:52:56.886Z,72.90
2018-02-22T08:55:25.125Z,73.00
2018-02-22T08:57:52.577Z,73.00
2018-02-22T09:00:20.039Z,73.30
2018-02-22T09:02:47.493Z,73.40
2018-02-22T09:05:15.026Z,73.30
2018-02-22T09:07:42.476Z,73.60
2018-02-22T09:10:10.713Z,73.00
2018-02-22T09:12:38.185Z,73.00
2018-02-22T09:15:05.679Z,72.60
2018-02-22T09:17:33.899Z,73.10
2018-02-22T09:20:01.367Z,73.10
2018-02-22T09:22:28.824Z,72.90
2018-02-22T09:24:56.296Z,73.40
2018-02-22T09:27:23.757Z,73.00
2018-02-22T09:29:51.224Z,72.70
2018-02-22T09:32:18.682Z,72.70
2018-02-22T09:34:46.144Z,72.70
2018-02-22T09:37:13.611Z,72.20
2018-02-22T09:39:41.081Z,72.20
2018-02-22T09:42:08.548Z,72.00
2018-02-22T09:44:36.017Z,72.50
2018-02-22T09:47:03.469Z,72.90
2018-02-22T09:49:30.945Z,72.60
2018-02-22T09:51:58.397Z,72.30
2018-02-22T09:54:25.866Z,72.80
2018-02-22T09:56:53.328Z,72.60
2018-02-22T09:59:20.779Z,71.50
2018-02-22T10:01:48.253Z,71.50
2018-02-22T10:04:15.715Z,71.70
2018-02-22T10:06:43.176Z,71.40
2018-02-22T10:09:10.658Z,71.20
2018-02-22T10:11:38.895Z,72.20
2018-02-22T10:14:06.340Z,72.10
2018-02-22T10:16:33.811Z,71.70
2018-02-22T10:19:01.316Z,71.50
2018-02-22T10:21:28.725Z,71.90
2018-02-22T10:23:56.180Z,71.30
2018-02-22T10:26:23.653Z,71.70
2018-02-22T10:28:51.109Z,71.30
2018-02-22T10:31:18.574Z,70.90
2018-02-22T10:33:46.020Z,70.50
2018-02-22T10:36:13.500Z,69.80
2018-02-22T10:38:40.936Z,69.90
2018-02-22T10:41:09.165Z,70.10
2018-02-22T10:43:36.621Z,70.10
2018-02-22T10:46:04.103Z,69.90
2018-02-22T10:48:31.554Z,69.70
2018-02-22T10:50:59.015Z,69.10
2018-02-22T10:53:26.465Z,68.40
2018-02-22T10:55:53.921Z,68.00
2018-02-22T10:58:21.378Z,69.10
2018-02-22T11:00:54.649Z,69.40
2018-02-22T11:03:22.861Z,69.20
2018-02-22T11:05:50.335Z,69.10
2018-02-22T11:08:17.780Z,70.00
2018-02-22T11:10:45.251Z,69.50
2018-02-22T11:13:12.704Z,69.40
2018-02-22T11:15:40.162Z,69.40
2018-02-22T11:18:07.613Z,69.10
2018-02-22T11:20:35.070Z,68.60
2018-02-22T11:23:02.525Z,69.00
2018-02-22T11:25:30.762Z,68.40
2018-02-22T11:27:58.979Z,68.30
2018-02-22T11:30:27.210Z,68.10
2018-02-22T11:32:54.668Z,68.20
2018-02-22T11:35:22.120Z,68.30
2018-02-22T11:37:49.590Z,68.60
2018-02-22T11:40:17.048Z,68.30
2018-02-22T11:42:44.518Z,68.10
2018-02-22T11:45:11.968Z,68.10
2018-02-22T11:47:39.422Z,68.50
2018-02-22T11:50:06.864Z,68.10
2018-02-22T11:52:35.093Z,67.60
2018-02-22T11:55:02.549Z,67.60
2018-02-22T11:57:30.009Z,66.70
2018-02-22T11:59:57.471Z,66.90
2018-02-22T12:02:24.920Z,64.10
2018-02-22T12:04:52.385Z,62.80
2018-02-22T12:07:19.841Z,61.90
2018-02-22T12:09:47.296Z,61.90
2018-02-22T12:12:14.767Z,61.30
2018-02-22T12:14:42.226Z,62.80
2018-02-22T12:17:09.685Z,62.80
2018-02-22T12:19:37.132Z,61.40
2018-02-22T12:22:04.589Z,61.90
2018-02-22T12:24:32.816Z,60.60
2018-02-22T12:27:00.300Z,60.60
2018-02-22T12:29:27.758Z,60.60
2018-02-22T12:31:55.218Z,60.30
2018-02-22T12:34:22.669Z,59.80
2018-02-22T12:36:50.945Z,59.90
2018-02-22T12:39:18.398Z,58.90
2018-02-22T12:41:45.865Z,59.10
2018-02-22T12:44:13.316Z,59.00
2018-02-22T12:46:40.772Z,59.50
2018-02-22T12:49:08.228Z,58.60
2018-02-22T12:51:35.685Z,58.60
2018-02-22T12:54:03.141Z,58.50
2018-02-22T12:56:31.363Z,58.30
2018-02-22T12:58:58.832Z,58.40
2018-02-22T13:01:26.285Z,57.60
2018-02-22T13:03:53.740Z,56.70
2018-02-22T13:06:21.198Z,56.80
2018-02-22T13:08:48.652Z,56.90
2018-02-22T13:11:16.111Z,57.10
2018-02-22T13:13:43.582Z,56.50
2018-02-22T13:16:11.033Z,55.70
2018-02-22T13:18:38.498Z,56.20
2018-02-22T13:21:05.945Z,54.60
2018-02-22T13:23:33.409Z,55.50
2018-02-22T13:26:00.880Z,55.60
2018-02-22T13:28:28.335Z,55.80
2018-02-22T13:30:55.780Z,55.80
2018-02-22T13:33:35.941Z,56.50
2018-02-22T13:36:04.161Z,55.70
2018-02-22T13:38:43.554Z,55.70
2018-02-22T13:41:11.766Z,56.10
2018-02-22T13:43:39.244Z,56.00
2018-02-22T13:46:06.692Z,56.90
2018-02-22T13:51:33.713Z,56.10
2018-02-22T13:54:01.955Z,55.80
2018-02-22T13:56:41.229Z,55.80
2018-02-22T13:59:09.483Z,55.50
2018-02-22T14:01:48.817Z,55.60
2018-02-22T14:04:16.278Z,56.20
2018-02-22T14:06:43.832Z,55.60
2018-02-22T14:09:11.291Z,55.40
2018-02-22T14:11:38.747Z,56.30
2018-02-22T14:14:06.964Z,55.30
2018-02-22T14:16:35.180Z,54.70
2018-02-22T14:19:02.641Z,54.60
2018-02-22T14:21:30.093Z,56.20
2018-02-22T14:23:57.718Z,55.40
2018-02-22T14:26:25.021Z,54.80
2018-02-22T14:28:52.483Z,54.40
2018-02-22T14:31:19.930Z,54.40
2018-02-22T14:33:47.439Z,54.20
2018-02-22T14:36:15.609Z,53.70
2018-02-22T14:38:43.074Z,53.70
2018-02-22T14:41:10.534Z,55.20
2018-02-22T14:43:37.996Z,53.30
2018-02-22T14:46:05.457Z,53.40
2018-02-22T14:48:32.908Z,53.90
2018-02-22T14:51:00.367Z,55.00
2018-02-22T14:53:27.852Z,53.60
2018-02-22T14:55:55.311Z,53.40
2018-02-22T14:58:23.541Z,54.80
2018-02-22T15:00:57.442Z,53.20
2018-02-22T15:03:25.682Z,54.20
2018-02-22T15:05:53.132Z,53.50
2018-02-22T15:08:20.599Z,53.40
2018-02-22T15:10:48.042Z,53.40
2018-02-22T15:13:15.511Z,53.10
2018-02-22T15:15:42.965Z,53.20
2018-02-22T15:18:10.435Z,53.20
2018-02-22T15:20:37.888Z,53.40
2018-02-22T15:23:05.336Z,52.80
2018-02-22T15:25:32.791Z,53.20
2018-02-22T15:28:01.022Z,54.10
2018-02-22T15:30:28.477Z,54.00
2018-02-22T15:32:55.936Z,54.30
2018-02-22T15:35:23.391Z,53.00
2018-02-22T15:37:50.854Z,52.80
2018-02-22T15:40:18.313Z,53.10
2018-02-22T15:42:45.775Z,52.70
2018-02-22T15:45:13.232Z,53.40
2018-02-22T15:47:40.699Z,53.40
2018-02-22T15:50:08.174Z,53.50
2018-02-22T15:52:35.633Z,53.10
2018-02-22T15:55:03.153Z,52.50
2018-02-22T15:57:30.566Z,53.50
2018-02-22T15:59:58.036Z,52.90
2018-02-22T16:02:25.475Z,53.60
2018-02-22T16:04:52.963Z,54.10
2018-02-22T16:07:20.410Z,54.40
2018-02-22T16:09:47.879Z,53.30
2018-02-22T16:12:15.339Z,54.10
2018-02-22T16:14:42.790Z,53.30
2018-02-22T16:17:10.255Z,53.40
2018-02-22T16:19:37.702Z,54.00
2018-02-22T16:22:05.150Z,54.30
2018-02-22T16:24:32.613Z,54.30
2018-02-22T16:27:00.831Z,53.70
2018-02-22T16:29:28.295Z,53.70
2018-02-22T16:31:55.759Z,53.90
2018-02-22T16:34:23.296Z,54.30
2018-02-22T16:36:50.737Z,53.80
2018-02-22T16:39:18.969Z,54.60
2018-02-22T16:41:47.174Z,54.60
2018-02-22T16:44:14.637Z,54.50
2018-02-22T16:46:42.089Z,54.90
2018-02-22T16:49:09.564Z,55.50
2018-02-22T16:51:37.015Z,56.40
2018-02-22T16:54:04.492Z,56.30
2018-02-22T16:56:31.953Z,56.30
2018-02-22T16:58:59.403Z,56.80
2018-02-22T17:01:26.852Z,55.80
2018-02-22T17:03:54.319Z,55.50
2018-02-22T17:06:21.765Z,56.30
2018-02-22T17:08:49.229Z,56.20
2018-02-22T17:11:16.677Z,56.00
2018-02-22T17:13:44.137Z,55.80
2018-02-22T17:16:11.586Z,56.40
2018-02-22T17:18:39.033Z,56.30
2018-02-22T17:21:07.258Z,56.70
2018-02-22T17:23:34.726Z,56.70
2018-02-22T17:26:07.965Z,57.30
2018-02-22T17:28:41.950Z,56.20
2018-02-22T17:31:15.169Z,56.20
2018-02-22T17:33:43.400Z,56.70
2018-02-22T17:36:11.759Z,56.70
2018-02-22T17:38:52.040Z,56.40
2018-02-22T17:41:23.299Z,57.10
2018-02-22T17:43:50.762Z,57.10
2018-02-22T17:46:18.230Z,57.20
2018-02-22T17:48:45.693Z,57.10
2018-02-22T17:51:13.162Z,57.40
2018-02-22T17:53:40.614Z,57.10
2018-02-22T17:56:08.078Z,57.30
2018-02-22T17:58:35.528Z,57.60
2018-02-22T18:01:02.984Z,57.90
2018-02-22T18:03:30.437Z,57.90
2018-02-22T18:05:57.900Z,57.90
2018-02-22T18:08:25.350Z,57.70
2018-02-22T18:10:52.804Z,57.80
2018-02-22T18:13:20.265Z,58.40
2018-02-22T18:15:47.718Z,58.70
2018-02-22T18:18:15.169Z,58.90
2018-02-22T18:20:43.394Z,58.70
2018-02-22T18:23:10.852Z,58.70
2018-02-22T18:25:38.324Z,58.90
2018-02-22T18:28:05.782Z,59.20
2018-02-22T18:30:33.254Z,59.70
2018-02-22T18:33:00.697Z,59.10
2018-02-22T18:35:28.175Z,59.00
2018-02-22T18:37:59.649Z,59.10
2018-02-22T18:40:32.690Z,59.90
2018-02-22T18:43:00.133Z,59.50
2018-02-22T18:45:28.414Z,59.90
2018-02-22T18:47:55.811Z,59.90
2018-02-22T18:50:23.266Z,59.90
2018-02-22T18:52:50.722Z,60.20
2018-02-22T18:55:18.186Z,60.20
2018-02-22T18:57:45.642Z,60.20
2018-02-22T19:00:13.110Z,60.20
2018-02-22T19:02:40.565Z,60.00
2018-02-22T19:05:08.032Z,60.30
2018-02-22T19:07:35.485Z,60.10
2018-02-22T19:10:02.942Z,60.20
2018-02-22T19:12:31.159Z,59.70
2018-02-22T19:14:58.628Z,59.70
2018-02-22T19:17:26.076Z,59.60
2018-02-22T19:19:53.525Z,60.00
2018-02-22T19:22:20.988Z,59.90
2018-02-22T19:24:48.450Z,59.80
2018-02-22T19:27:15.906Z,60.00
2018-02-22T19:29:43.372Z,59.80
2018-02-22T19:32:10.857Z,60.20
2018-02-22T19:34:38.294Z,60.00
2018-02-22T19:37:05.764Z,60.40
2018-02-22T19:39:33.216Z,60.10
2018-02-22T19:42:00.690Z,60.40
2018-02-22T19:44:28.130Z,60.30
2018-02-22T19:46:55.604Z,60.30
2018-02-22T19:49:23.053Z,60.60
2018-02-22T19:51:50.513Z,60.60
2018-02-22T19:54:18.742Z,61.00
2018-02-22T19:56:46.212Z,61.10
2018-02-22T19:59:13.696Z,60.60
2018-02-22T20:01:41.153Z,60.60
2018-02-22T20:04:08.629Z,60.60
2018-02-22T20:06:36.089Z,60.50
2018-02-22T20:09:04.305Z,60.80
2018-02-22T20:11:31.792Z,60.80
2018-02-22T20:13:59.223Z,61.00
2018-02-22T20:16:26.690Z,61.30
2018-02-22T20:18:54.148Z,61.10
2018-02-22T20:21:21.613Z,60.80
2018-02-22T20:23:49.064Z,60.70
2018-02-22T20:26:16.536Z,61.20
2018-02-22T20:28:43.994Z,61.20
2018-02-22T20:31:11.453Z,61.40
2018-02-22T20:33:38.937Z,61.70
2018-02-22T20:36:06.398Z,61.20
2018-02-22T20:38:33.857Z,61.80
2018-02-22T20:41:01.316Z,61.50
2018-02-22T20:43:28.787Z,61.90
2018-02-22T20:45:56.246Z,61.90
2018-02-22T20:48:23.729Z,61.80
2018-02-22T20:50:51.188Z,62.20
2018-02-22T20:53:24.255Z,62.20
2018-02-22T20:55:51.721Z,62.10
2018-02-22T20:58:19.193Z,62.30
2018-02-22T21:00:46.650Z,62.10
2018-02-22T21:03:16.025Z,62.60
2018-02-22T21:05:44.247Z,62.90
2018-02-22T21:08:11.710Z,62.90
2018-02-22T21:10:39.164Z,63.00
2018-02-22T21:13:06.637Z,63.10
2018-02-22T21:15:34.084Z,62.80
2018-02-22T21:18:01.558Z,63.20
2018-02-22T21:20:29.008Z,63.10
2018-02-22T21:22:56.486Z,63.40
2018-02-22T21:25:23.948Z,63.70
2018-02-22T21:27:51.423Z,63.70
2018-02-22T21:30:18.877Z,63.40
2018-02-22T21:32:46.347Z,63.30
2018-02-22T21:35:13.815Z,63.70
2018-02-22T21:37:41.289Z,63.90
2018-02-22T21:40:08.751Z,63.80
2018-02-22T21:42:36.212Z,64.10
2018-02-22T21:45:03.680Z,64.10
2018-02-22T21:47:31.191Z,63.90
2018-02-22T21:49:58.640Z,65.00
2018-02-22T21:52:26.865Z,64.00
2018-02-22T21:54:54.322Z,64.00
2018-02-22T21:57:21.791Z,64.20
2018-02-22T21:59:49.255Z,64.30
2018-02-22T22:02:16.716Z,64.30
2018-02-22T22:04:44.179Z,64.10
2018-02-22T22:07:11.634Z,64.50
2018-02-22T22:09:39.095Z,64.50
2018-02-22T22:12:06.557Z,64.40
2018-02-22T22:14:34.023Z,64.40
2018-02-22T22:17:01.486Z,64.50
2018-02-22T22:19:28.934Z,64.60
2018-02-22T22:21:56.409Z,65.60
2018-02-22T22:24:23.863Z,64.70
2018-02-22T22:26:51.326Z,64.70
2018-02-22T22:29:18.793Z,64.70
2018-02-22T22:31:46.265Z,65.20
2018-02-22T22:34:13.725Z,64.80
2018-02-22T22:36:41.184Z,64.50
2018-02-22T22:39:08.643Z,64.90
2018-02-22T22:41:36.114Z,65.30
2018-02-22T22:44:03.614Z,65.20
2018-02-22T22:46:31.051Z,65.60
2018-02-22T22:48:58.525Z,65.10
2018-02-22T22:51:25.973Z,65.10
2018-02-22T22:53:53.429Z,65.30
2018-02-22T22:56:20.890Z,65.70
2018-02-22T22:58:48.359Z,65.20
2018-02-22T23:01:15.813Z,65.90
2018-02-22T23:03:43.292Z,65.30
2018-02-22T23:06:10.740Z,65.80
2018-02-22T23:08:38.211Z,65.70
2018-02-22T23:11:05.655Z,65.70
2018-02-22T23:13:33.124Z,65.40
2018-02-22T23:16:00.585Z,65.60
2018-02-22T23:18:28.044Z,65.50
2018-02-22T23:20:55.512Z,65.30
2018-02-22T23:23:22.983Z,64.70
2018-02-22T23:25:50.452Z,65.20
2018-02-22T23:28:17.916Z,65.40
2018-02-22T23:30:45.377Z,65.30
2018-02-22T23:33:12.848Z,65.00
2018-02-22T23:35:40.298Z,64.80
2018-02-22T23:38:07.757Z,65.00
2018-02-22T23:40:41.019Z,65.20
2018-02-22T23:43:09.244Z,65.30
2018-02-22T23:45:36.693Z,65.30
2018-02-22T23:48:04.172Z,65.30
2018-02-22T23:50:31.615Z,65.10
2018-02-22T23:52:59.096Z,64.50
2018-02-22T23:55:26.551Z,65.40
2018-02-22T23:57:54.016Z,65.10
